Portada
METAR-TAF:

METAR-TAF

Aeroports :

Abadan, Iran

latitud: 30-22N, longitud: 048-15E, altitud: 3 m

Observació

L'informe es va fer fa 1 hora i 4 minuts, a les 00:00 UTC
Vent 16 kt del Nord-Oest
Temperatura 28°C
Humitat 25%
Pressió 1010 hPa
Visibilitat 10 km o més
sense núvols per sota de 1500 mi sense presència de cumulonimbus.

METAR: OIAA 180000Z 31016KT CAVOK 28/06 Q1010

Hora: 05:34 (01:04 UTC)

Pronòstic

L'informe es va fer fa 1 hora i 54 minuts, a les 23:10 UTC
Pronòstic vàlid del 18 a les 00 UTC al 19 a les 06 UTC
Vent 7 kt del Nord-Oest
Visibilitat: 7000 m
Escasses núvols a una alçada de 4000 ft
Temporalment
l' 18 a les 01 UTC al 18 a les 09 UTC
Vent 18 kt del Nord-Oest
Visibilitat: 4000 m
Pols estès
Temporalment
l' 18 a les 08 UTC al 18 a les 18 UTC
Vent 17 kt del Nord-Oest

TAF: OIAA 172310Z 1800/1906 32007KT 7000 FEW040 TEMPO 1801/1809 32018KT 4000 DU TEMPO 1808/1818 32017KT

Observacions i pronòstics meteorològics de més de 4000 aeroports (METAR i TAF).

Les estacions disponibles són els punts grocs i vermells al mapa.

Posi el ratolí al punt desitjat per veure el nom de l'estació.

Feu clic per veure les observacions i els pronòstics meteorològics.

Per canviar el mapa: feu clic els botons verds amb una creu de color negre per apropar; al botó verd amb un guió per allunyar la imatge; o en les fletxes verdes per a mapes adjacents.


METAR-TAF: